Time;durP1;ratioP1;P1;durP2;ratioP2;P2;SDS_P1;SDS_P2;PMS_P1;PMS_P2;Temp;Humidity;BMP_temperature;BMP_pressure;BME280_temperature;BME280_humidity;BME280_pressure;Samples;Min_cycle;Max_cycle;Signal;HPM_P1;HPM_P2
2021/11/26 00:00:48;;;;;;;14.98;7.03;;;4.80;84.50;;;;;;4934973;29;20056;-90
2021/11/26 00:03:15;;;;;;;18.85;6.28;;;4.80;84.50;;;;;;4931392;29;20079;-89
2021/11/26 00:05:42;;;;;;;19.20;6.22;;;4.80;84.50;;;;;;4935029;29;20048;-88
2021/11/26 00:08:09;;;;;;;15.95;6.70;;;4.70;84.50;;;;;;4933906;29;20051;-90
2021/11/26 00:10:36;;;;;;;24.85;7.13;;;4.80;84.50;;;;;;4931009;29;20170;-93
2021/11/26 00:13:07;;;;;;;19.67;7.00;;;4.80;84.50;;;;;;4935237;29;20493;-91
2021/11/26 00:18:09;;;;;;;15.73;6.95;;;4.80;84.50;;;;;;4919492;29;20044;-91
2021/11/26 00:20:38;;;;;;;21.45;7.75;;;4.80;84.50;;;;;;4924187;29;20051;-88
2021/11/26 00:23:07;;;;;;;20.98;6.63;;;4.70;84.50;;;;;;4927847;29;20056;-90
2021/11/26 00:25:34;;;;;;;26.48;7.50;;;4.70;84.50;;;;;;4916200;29;20048;-90
2021/11/26 00:28:02;;;;;;;18.98;7.03;;;4.70;84.40;;;;;;4917208;29;20056;-89
2021/11/26 00:30:29;;;;;;;19.35;6.60;;;4.70;84.40;;;;;;4932009;29;20482;-89
2021/11/26 00:32:56;;;;;;;18.20;6.32;;;4.70;84.40;;;;;;4930068;29;20063;-90
2021/11/26 00:35:23;;;;;;;18.92;6.28;;;4.70;84.40;;;;;;4937668;29;20473;-89
2021/11/26 00:37:51;;;;;;;18.42;6.63;;;4.70;84.40;;;;;;4934891;29;20063;-89
2021/11/26 00:40:18;;;;;;;22.17;6.93;;;4.70;84.30;;;;;;4938313;29;20079;-90
2021/11/26 00:42:45;;;;;;;14.90;5.75;;;4.70;84.40;;;;;;4936833;29;20048;-90
2021/11/26 00:45:14;;;;;;;15.57;6.10;;;4.70;84.30;;;;;;4934863;29;20059;-88
2021/11/26 00:47:43;;;;;;;20.70;6.57;;;4.70;84.30;;;;;;4930180;29;20055;-90
2021/11/26 00:50:13;;;;;;;19.65;7.25;;;4.70;84.30;;;;;;4934468;29;20044;-88
2021/11/26 00:52:40;;;;;;;20.42;6.18;;;4.70;84.20;;;;;;4934770;29;20486;-90
2021/11/26 00:55:08;;;;;;;17.92;5.97;;;4.60;84.20;;;;;;4938710;29;20052;-91
2021/11/26 00:57:36;;;;;;;17.73;6.32;;;4.70;84.20;;;;;;4920643;29;20133;-90
2021/11/26 01:00:06;;;;;;;16.98;6.43;;;4.70;84.20;;;;;;4919641;29;20052;-89
2021/11/26 01:02:33;;;;;;;20.23;6.50;;;4.60;84.20;;;;;;4928012;29;20527;-90
2021/11/26 01:05:01;;;;;;;16.92;6.35;;;4.60;84.20;;;;;;4935201;29;20054;-90
2021/11/26 01:07:28;;;;;;;21.02;6.97;;;4.60;84.20;;;;;;4936850;29;20059;-89
2021/11/26 01:09:55;;;;;;;16.65;6.45;;;4.60;84.10;;;;;;4938469;29;20054;-91
2021/11/26 01:12:22;;;;;;;17.95;6.80;;;4.60;84.10;;;;;;4921287;29;20466;-91
2021/11/26 01:14:49;;;;;;;21.02;5.88;;;4.60;84.10;;;;;;4927476;29;20055;-88
2021/11/26 01:17:16;;;;;;;21.67;7.20;;;4.60;84.10;;;;;;4937202;29;20052;-91
2021/11/26 01:19:45;;;;;;;19.17;6.18;;;4.60;84.10;;;;;;4937226;29;20086;-90
2021/11/26 01:22:13;;;;;;;22.52;6.43;;;4.50;84.10;;;;;;4937542;29;20055;-89
2021/11/26 01:24:40;;;;;;;20.40;6.18;;;4.60;84.10;;;;;;4937741;29;20052;-93
2021/11/26 01:27:07;;;;;;;20.77;6.07;;;4.60;84.10;;;;;;4921821;29;20107;-91
2021/11/26 01:29:35;;;;;;;15.68;6.05;;;4.50;84.00;;;;;;4920856;29;20044;-90
2021/11/26 01:32:04;;;;;;;16.63;6.28;;;4.50;84.00;;;;;;4926016;29;20062;-91
2021/11/26 01:34:31;;;;;;;24.50;6.60;;;4.50;84.00;;;;;;4935502;29;20067;-89
2021/11/26 01:36:59;;;;;;;23.02;6.78;;;4.50;84.00;;;;;;4937945;29;20078;-90
2021/11/26 01:39:26;;;;;;;20.65;5.97;;;4.50;84.00;;;;;;4936522;29;20055;-90
2021/11/26 01:41:54;;;;;;;16.02;5.75;;;4.50;84.00;;;;;;4936839;29;20612;-90
2021/11/26 01:44:21;;;;;;;17.15;6.00;;;4.50;84.00;;;;;;4936173;29;20099;-90
2021/11/26 01:46:48;;;;;;;19.30;6.30;;;4.50;84.00;;;;;;4937514;29;20055;-90
2021/11/26 01:49:16;;;;;;;17.48;6.32;;;4.50;83.90;;;;;;4936416;29;20060;-89
2021/11/26 01:51:43;;;;;;;21.15;5.82;;;4.50;83.90;;;;;;4931265;29;20083;-89
2021/11/26 01:54:10;;;;;;;19.00;6.00;;;4.50;83.90;;;;;;4936061;29;20051;-91
2021/11/26 01:56:38;;;;;;;16.42;6.05;;;4.50;83.90;;;;;;4925032;29;20123;-89
2021/11/26 01:59:05;;;;;;;23.30;5.70;;;4.50;83.90;;;;;;4926281;29;20055;-91
2021/11/26 02:01:32;;;;;;;15.30;5.47;;;4.50;83.80;;;;;;4937335;29;20050;-90
2021/11/26 02:04:00;;;;;;;18.35;6.28;;;4.50;83.80;;;;;;4937435;29;20534;-89
2021/11/26 02:06:27;;;;;;;16.02;4.95;;;4.50;83.80;;;;;;4935210;29;20055;-90
2021/11/26 02:08:54;;;;;;;17.60;5.18;;;4.50;83.80;;;;;;4935794;29;20052;-90
2021/11/26 02:11:21;;;;;;;16.27;5.60;;;4.50;83.70;;;;;;4936162;29;20516;-88
2021/11/26 02:13:48;;;;;;;14.88;4.95;;;4.50;83.70;;;;;;4931446;29;20580;-90
2021/11/26 02:16:15;;;;;;;13.00;5.53;;;4.50;83.70;;;;;;4934162;29;20059;-91
2021/11/26 02:18:46;;;;;;;16.38;6.20;;;4.50;83.60;;;;;;4936851;29;20142;-92
2021/11/26 02:21:13;;;;;;;17.60;5.65;;;4.50;83.60;;;;;;4935261;29;20395;-88
2021/11/26 02:23:40;;;;;;;15.68;5.25;;;4.50;83.60;;;;;;4935210;29;20051;-91
2021/11/26 02:26:07;;;;;;;21.95;5.78;;;4.40;83.60;;;;;;4929234;29;20048;-89
2021/11/26 02:28:34;;;;;;;18.95;5.20;;;4.40;83.60;;;;;;4936637;29;20106;-90
2021/11/26 02:31:01;;;;;;;17.10;5.63;;;4.50;83.50;;;;;;4937073;29;20464;-90
2021/11/26 02:33:28;;;;;;;21.30;5.90;;;4.40;83.50;;;;;;4935955;29;20067;-90
2021/11/26 02:35:55;;;;;;;17.73;4.85;;;4.40;83.50;;;;;;4934770;29;20052;-89
2021/11/26 02:38:25;;;;;;;14.77;4.93;;;4.40;83.50;;;;;;4936095;29;20041;-88
2021/11/26 02:40:53;;;;;;;20.50;5.10;;;4.40;83.50;;;;;;4933159;29;20506;-90
2021/11/26 02:43:21;;;;;;;20.38;6.25;;;4.40;83.50;;;;;;4934255;29;20418;-90
2021/11/26 02:45:48;;;;;;;15.25;4.40;;;4.40;83.40;;;;;;4934974;29;20055;-90
2021/11/26 02:48:15;;;;;;;15.27;4.60;;;4.40;83.40;;;;;;4932127;29;20086;-90
2021/11/26 02:50:45;;;;;;;16.67;5.07;;;4.40;83.40;;;;;;4934902;29;20058;-90
2021/11/26 02:53:12;;;;;;;15.52;5.03;;;4.40;83.40;;;;;;4928353;29;20524;-90
2021/11/26 02:55:39;;;;;;;18.15;5.70;;;4.40;83.40;;;;;;4918317;29;20509;-90
2021/11/26 02:58:07;;;;;;;20.83;4.57;;;4.40;83.30;;;;;;4934262;29;20067;-89
2021/11/26 03:00:36;;;;;;;17.00;4.55;;;4.40;83.30;;;;;;4932982;29;20043;-89
2021/11/26 03:03:03;;;;;;;10.23;3.75;;;4.40;83.30;;;;;;4935895;29;20047;-90
2021/11/26 03:05:31;;;;;;;16.52;5.22;;;4.40;83.30;;;;;;4934607;29;20043;-90
2021/11/26 03:07:58;;;;;;;19.00;5.03;;;4.40;83.30;;;;;;4929448;29;20052;-90
2021/11/26 03:10:26;;;;;;;14.90;4.10;;;4.40;83.30;;;;;;4933404;29;20059;-90
2021/11/26 03:12:59;;;;;;;16.50;4.50;;;4.30;83.30;;;;;;4930877;29;20055;-90
2021/11/26 03:15:31;;;;;;;11.73;4.38;;;4.40;83.20;;;;;;4917319;29;20067;-89
2021/11/26 03:17:58;;;;;;;15.82;4.43;;;4.30;83.20;;;;;;4930271;29;20066;-90
2021/11/26 03:20:27;;;;;;;14.23;4.65;;;4.30;83.20;;;;;;4931794;29;20055;-90
2021/11/26 03:22:55;;;;;;;13.65;4.28;;;4.30;83.20;;;;;;4934119;29;20048;-90
2021/11/26 03:25:22;;;;;;;17.00;4.50;;;4.40;83.20;;;;;;4933142;29;20463;-91
2021/11/26 03:27:49;;;;;;;13.40;4.10;;;4.30;83.20;;;;;;4933950;29;20055;-91
2021/11/26 03:30:20;;;;;;;14.48;4.25;;;4.30;83.20;;;;;;4934620;29;20048;-90
2021/11/26 03:32:47;;;;;;;19.95;4.50;;;4.30;83.20;;;;;;4932142;29;20051;-90
2021/11/26 03:35:17;;;;;;;18.67;4.63;;;4.30;83.10;;;;;;4926568;29;20108;-89
2021/11/26 03:37:45;;;;;;;16.77;4.32;;;4.30;83.10;;;;;;4916833;29;20067;-90
2021/11/26 03:40:15;;;;;;;17.05;4.53;;;4.30;83.10;;;;;;4916466;29;20052;-89
2021/11/26 03:42:41;;;;;;;16.75;4.20;;;4.30;83.10;;;;;;4916656;29;20056;-89
2021/11/26 03:45:09;;;;;;;13.13;4.18;;;4.30;83.10;;;;;;4924531;29;20110;-89
2021/11/26 03:47:37;;;;;;;19.65;4.68;;;4.30;83.10;;;;;;4935446;29;20516;-90
2021/11/26 03:50:06;;;;;;;12.05;4.25;;;4.30;83.10;;;;;;4933771;29;20048;-90
2021/11/26 03:52:33;;;;;;;15.35;4.75;;;4.30;83.10;;;;;;4932396;29;20103;-89
2021/11/26 03:55:01;;;;;;;18.45;4.72;;;4.30;83.10;;;;;;4915031;29;20060;-90
2021/11/26 03:57:28;;;;;;;11.23;4.28;;;4.30;83.00;;;;;;4932969;29;20058;-89
2021/11/26 03:59:55;;;;;;;14.00;4.07;;;4.20;83.00;;;;;;4920743;29;20060;-89
2021/11/26 04:02:21;;;;;;;14.57;4.20;;;4.30;83.00;;;;;;4923358;29;20050;-89
2021/11/26 04:04:48;;;;;;;11.73;4.00;;;4.30;83.00;;;;;;4934357;29;20138;-89
2021/11/26 04:07:15;;;;;;;12.23;4.57;;;4.20;83.00;;;;;;4933473;29;20074;-91
2021/11/26 04:09:43;;;;;;;20.13;5.10;;;4.30;83.00;;;;;;4934595;29;20457;-88
2021/11/26 04:12:10;;;;;;;17.50;4.55;;;4.30;83.00;;;;;;4934320;29;20058;-90
2021/11/26 04:14:40;;;;;;;20.25;4.97;;;4.20;83.00;;;;;;4934472;29;20048;-89
2021/11/26 04:17:10;;;;;;;19.02;4.80;;;4.20;83.00;;;;;;4928363;29;20060;-90
2021/11/26 04:19:38;;;;;;;15.38;5.30;;;4.20;83.00;;;;;;4931608;29;20084;-90
2021/11/26 04:22:06;;;;;;;11.27;4.20;;;4.20;83.00;;;;;;4931068;29;20052;-89
2021/11/26 04:24:33;;;;;;;14.75;3.70;;;4.20;83.00;;;;;;4930015;29;20048;-90
2021/11/26 04:27:02;;;;;;;13.60;3.88;;;4.20;83.00;;;;;;4931353;29;20512;-89
2021/11/26 04:29:29;;;;;;;16.73;4.28;;;4.20;83.00;;;;;;4932071;29;20054;-90
2021/11/26 04:31:56;;;;;;;10.65;4.32;;;4.20;83.00;;;;;;4935127;29;20050;-90
2021/11/26 04:34:23;;;;;;;9.45;4.07;;;4.20;83.00;;;;;;4933079;29;20056;-89
2021/11/26 04:36:50;;;;;;;18.10;4.55;;;4.20;83.00;;;;;;4933707;29;20055;-90
2021/11/26 04:39:17;;;;;;;14.98;3.97;;;4.20;83.00;;;;;;4934568;29;20111;-89
2021/11/26 04:41:44;;;;;;;14.18;4.38;;;4.20;83.00;;;;;;4935176;29;20048;-90
2021/11/26 04:44:11;;;;;;;18.13;4.68;;;4.20;83.00;;;;;;4930893;29;20051;-89
2021/11/26 04:46:38;;;;;;;16.27;4.95;;;4.20;83.00;;;;;;4934753;29;20095;-89
2021/11/26 04:49:06;;;;;;;15.75;4.70;;;4.20;83.00;;;;;;4933668;29;20529;-90
2021/11/26 04:51:34;;;;;;;20.17;6.18;;;4.20;83.00;;;;;;4933339;29;20457;-89
2021/11/26 04:54:01;;;;;;;15.02;4.72;;;4.20;83.00;;;;;;4934145;29;20059;-89
2021/11/26 04:56:30;;;;;;;15.23;4.63;;;4.20;83.00;;;;;;4928135;29;20432;-90
2021/11/26 04:58:57;;;;;;;13.10;4.68;;;4.20;83.00;;;;;;4933586;29;20421;-90
2021/11/26 05:01:24;;;;;;;18.42;5.40;;;4.20;83.00;;;;;;4933741;29;20055;-90
2021/11/26 05:03:52;;;;;;;15.18;4.60;;;4.20;83.00;;;;;;4935252;29;20048;-91
2021/11/26 05:06:19;;;;;;;17.38;4.57;;;4.20;83.00;;;;;;4932622;29;20055;-91
2021/11/26 05:08:46;;;;;;;14.73;4.85;;;4.20;83.00;;;;;;4927599;29;20058;-90
2021/11/26 05:11:13;;;;;;;15.40;4.60;;;4.20;83.00;;;;;;4931418;29;20051;-90
2021/11/26 05:13:49;;;;;;;18.48;5.22;;;4.20;83.00;;;;;;4933016;29;20603;-90
2021/11/26 05:16:16;;;;;;;17.83;5.05;;;4.20;83.00;;;;;;4936806;29;20106;-90
2021/11/26 05:18:44;;;;;;;17.42;5.35;;;4.20;83.00;;;;;;4931874;29;20060;-90
2021/11/26 05:21:12;;;;;;;16.83;5.05;;;4.20;83.00;;;;;;4922151;29;20060;-90
2021/11/26 05:23:39;;;;;;;12.55;5.10;;;4.20;83.00;;;;;;4930153;29;20461;-90
2021/11/26 05:26:07;;;;;;;12.25;4.40;;;4.20;83.00;;;;;;4935696;29;20051;-90
2021/11/26 05:28:34;;;;;;;17.77;4.97;;;4.20;82.90;;;;;;4934671;29;20044;-90
2021/11/26 05:31:01;;;;;;;15.77;4.85;;;4.20;82.90;;;;;;4934142;29;20130;-90
2021/11/26 05:33:28;;;;;;;12.00;4.43;;;4.10;82.90;;;;;;4937057;29;20060;-90
2021/11/26 05:35:55;;;;;;;22.48;5.75;;;4.20;82.90;;;;;;4934718;29;20103;-90
2021/11/26 05:38:22;;;;;;;17.40;4.88;;;4.10;82.90;;;;;;4937160;29;20095;-90
2021/11/26 05:40:49;;;;;;;14.15;5.05;;;4.10;82.90;;;;;;4932600;29;20440;-89
2021/11/26 05:43:18;;;;;;;10.30;4.70;;;4.10;82.80;;;;;;4936044;29;20044;-89
2021/11/26 05:45:45;;;;;;;18.58;5.20;;;4.10;82.80;;;;;;4935741;29;20048;-89
2021/11/26 05:48:13;;;;;;;15.55;5.03;;;4.10;82.80;;;;;;4931097;29;20503;-90
2021/11/26 05:50:40;;;;;;;15.98;5.10;;;4.00;82.80;;;;;;4936817;29;20055;-90
2021/11/26 05:53:07;;;;;;;15.27;5.72;;;4.00;82.70;;;;;;4937454;29;20504;-90
2021/11/26 05:55:34;;;;;;;17.67;5.35;;;4.00;82.70;;;;;;4937835;29;20085;-90
2021/11/26 05:58:02;;;;;;;14.63;5.75;;;4.00;82.70;;;;;;4938286;29;20087;-90
2021/11/26 06:00:34;;;;;;;19.02;5.47;;;4.00;82.60;;;;;;4929633;29;20114;-90
2021/11/26 06:03:03;;;;;;;13.25;5.40;;;4.00;82.60;;;;;;4937701;29;20051;-90
2021/11/26 06:05:30;;;;;;;15.43;5.15;;;4.00;82.60;;;;;;4929133;29;20051;-90
2021/11/26 06:07:58;;;;;;;20.85;5.97;;;3.90;82.60;;;;;;4935766;29;20508;-90
2021/11/26 06:10:30;;;;;;;14.25;5.28;;;3.90;82.50;;;;;;4937831;29;20059;-90
2021/11/26 06:12:57;;;;;;;17.98;5.65;;;3.90;82.50;;;;;;4936736;29;20537;-90
2021/11/26 06:15:24;;;;;;;15.90;5.50;;;3.90;82.50;;;;;;4921127;29;20068;-89
2021/11/26 06:17:51;;;;;;;17.75;5.80;;;3.90;82.50;;;;;;4928172;29;20071;-90
2021/11/26 06:20:20;;;;;;;16.38;5.07;;;3.90;82.50;;;;;;4937428;29;20048;-90
2021/11/26 06:22:47;;;;;;;16.90;5.40;;;3.90;82.50;;;;;;4937697;29;20055;-92
2021/11/26 06:25:17;;;;;;;17.73;4.97;;;3.80;82.50;;;;;;4935849;29;20055;-91
2021/11/26 06:27:45;;;;;;;14.10;5.53;;;3.80;82.50;;;;;;4918227;29;20121;-91
2021/11/26 06:30:14;;;;;;;14.15;5.13;;;3.70;82.50;;;;;;4932961;29;20048;-90
2021/11/26 06:32:43;;;;;;;15.20;5.78;;;3.70;82.50;;;;;;4923952;29;20071;-89
2021/11/26 06:35:12;;;;;;;14.15;4.95;;;3.70;82.50;;;;;;4924036;29;20044;-89
2021/11/26 06:37:39;;;;;;;15.95;5.18;;;3.70;82.50;;;;;;4933667;29;20075;-90
2021/11/26 06:40:09;;;;;;;17.08;5.60;;;3.70;82.50;;;;;;4936870;29;20429;-90
2021/11/26 06:42:37;;;;;;;13.88;5.40;;;3.70;82.50;;;;;;4936778;29;20048;-91
2021/11/26 06:45:05;;;;;;;14.15;5.10;;;3.70;82.50;;;;;;4928516;29;20048;-88
2021/11/26 06:47:32;;;;;;;17.05;5.65;;;3.70;82.50;;;;;;4925719;29;20055;-92
2021/11/26 06:50:00;;;;;;;17.75;6.10;;;3.70;82.60;;;;;;4921473;29;20039;-91
2021/11/26 06:52:27;;;;;;;17.67;4.82;;;3.70;82.60;;;;;;4933436;29;20513;-91
2021/11/26 06:54:53;;;;;;;14.32;5.43;;;3.70;82.60;;;;;;4935432;29;20509;-90
2021/11/26 06:57:21;;;;;;;12.98;4.88;;;3.70;82.60;;;;;;4936088;29;20106;-91
2021/11/26 06:59:48;;;;;;;19.30;6.03;;;3.70;82.60;;;;;;4932554;29;20051;-90
2021/11/26 07:02:15;;;;;;;16.25;5.25;;;3.60;82.60;;;;;;4929375;29;20115;-91
2021/11/26 07:04:44;;;;;;;14.15;5.47;;;3.60;82.60;;;;;;4932059;29;20071;-91
2021/11/26 07:07:11;;;;;;;14.77;5.43;;;3.60;82.60;;;;;;4933397;29;20052;-89
2021/11/26 07:09:39;;;;;;;22.23;6.15;;;3.70;82.60;;;;;;4917510;29;20052;-90
2021/11/26 07:12:09;;;;;;;14.43;5.32;;;3.60;82.60;;;;;;4916732;29;20059;-91
2021/11/26 07:14:42;;;;;;;12.77;4.72;;;3.60;82.70;;;;;;4927716;29;20524;-89
2021/11/26 07:17:12;;;;;;;11.45;4.93;;;3.70;82.70;;;;;;4931138;29;20055;-90
2021/11/26 07:19:40;;;;;;;12.88;4.97;;;3.70;82.70;;;;;;4935809;29;20075;-90
2021/11/26 07:22:07;;;;;;;15.00;5.07;;;3.60;82.70;;;;;;4935913;29;20062;-90
2021/11/26 07:24:34;;;;;;;15.63;4.85;;;3.60;82.70;;;;;;4936131;29;20056;-90
2021/11/26 07:27:02;;;;;;;14.25;5.28;;;3.60;82.80;;;;;;4935252;29;20260;-93
2021/11/26 07:29:29;;;;;;;12.27;4.95;;;3.60;82.80;;;;;;4934996;29;20052;-92
2021/11/26 07:31:57;;;;;;;17.80;4.80;;;3.60;82.80;;;;;;4934610;29;20509;-92
2021/11/26 07:34:24;;;;;;;13.05;4.88;;;3.60;82.80;;;;;;4928594;29;20048;-90
2021/11/26 07:36:53;;;;;;;10.90;4.13;;;3.60;82.80;;;;;;4934733;29;20110;-91
2021/11/26 07:39:22;;;;;;;22.48;4.75;;;3.60;82.80;;;;;;4935387;29;20055;-90
2021/11/26 07:41:50;;;;;;;18.63;4.43;;;3.70;82.80;;;;;;4935209;29;20044;-89
2021/11/26 07:44:17;;;;;;;18.58;5.15;;;3.70;82.80;;;;;;4932139;29;20584;-90
2021/11/26 07:46:44;;;;;;;12.93;4.55;;;3.60;82.80;;;;;;4934209;29;20646;-89
2021/11/26 07:49:11;;;;;;;15.30;4.28;;;3.70;82.80;;;;;;4935496;29;20059;-90
2021/11/26 07:51:38;;;;;;;16.13;4.72;;;3.70;82.80;;;;;;4935846;29;20056;-90
2021/11/26 07:54:05;;;;;;;11.90;4.50;;;3.70;82.80;;;;;;4933171;29;20059;-90
2021/11/26 07:56:35;;;;;;;13.75;4.88;;;3.70;82.90;;;;;;4926856;29;20083;-89
2021/11/26 07:59:03;;;;;;;11.27;4.57;;;3.70;82.90;;;;;;4931490;29;20062;-89
2021/11/26 08:01:30;;;;;;;14.43;5.05;;;3.70;82.90;;;;;;4931631;29;20084;-89
2021/11/26 08:03:57;;;;;;;17.80;4.63;;;3.70;82.90;;;;;;4931515;29;20051;-89
2021/11/26 08:06:24;;;;;;;16.70;4.78;;;3.70;82.90;;;;;;4935612;28;20501;-89
2021/11/26 08:08:51;;;;;;;15.93;4.35;;;3.70;82.90;;;;;;4932025;29;20062;-90
2021/11/26 08:11:18;;;;;;;18.38;4.85;;;3.70;82.90;;;;;;4934843;29;20043;-89
2021/11/26 08:13:45;;;;;;;13.60;4.10;;;3.70;82.90;;;;;;4933358;29;20048;-89
2021/11/26 08:16:12;;;;;;;15.18;4.20;;;3.80;82.90;;;;;;4933801;29;20449;-88
2021/11/26 08:18:39;;;;;;;16.75;4.82;;;3.70;82.90;;;;;;4916585;29;20129;-91
2021/11/26 08:21:07;;;;;;;16.30;4.97;;;3.80;82.90;;;;;;4928391;29;20114;-88
2021/11/26 08:23:34;;;;;;;16.83;5.45;;;3.80;82.90;;;;;;4923675;29;20063;-88
2021/11/26 08:26:01;;;;;;;15.25;5.07;;;3.80;82.90;;;;;;4920656;29;20513;-89
2021/11/26 08:28:28;;;;;;;12.25;3.85;;;3.90;82.90;;;;;;4931704;29;20063;-89
2021/11/26 08:30:56;;;;;;;15.70;4.90;;;3.90;82.90;;;;;;4915228;29;20056;-88
2021/11/26 08:33:24;;;;;;;11.63;4.05;;;3.90;82.90;;;;;;4928714;29;20060;-91
2021/11/26 08:35:53;;;;;;;12.82;4.82;;;3.90;82.90;;;;;;4932058;29;20052;-88
2021/11/26 08:38:20;;;;;;;18.52;4.20;;;3.90;82.90;;;;;;4931173;29;20051;-89
2021/11/26 08:40:47;;;;;;;16.60;4.72;;;3.90;82.90;;;;;;4930153;29;20478;-89
2021/11/26 08:43:15;;;;;;;11.90;4.38;;;3.90;82.90;;;;;;4932437;29;20508;-89
2021/11/26 08:45:42;;;;;;;14.13;4.03;;;3.90;82.90;;;;;;4931314;29;20058;-89
2021/11/26 08:48:09;;;;;;;13.85;4.30;;;3.90;82.90;;;;;;4928961;29;20416;-89
2021/11/26 08:50:36;;;;;;;13.15;3.80;;;3.90;82.90;;;;;;4935409;29;20432;-90
2021/11/26 08:53:05;;;;;;;15.23;4.15;;;4.00;82.90;;;;;;4934816;29;20123;-89
2021/11/26 08:55:33;;;;;;;12.93;4.00;;;4.00;82.90;;;;;;4935984;29;20056;-90
2021/11/26 08:58:01;;;;;;;9.25;3.65;;;4.00;82.90;;;;;;4933592;29;20067;-89
2021/11/26 09:00:34;;;;;;;14.48;4.10;;;4.10;82.90;;;;;;4934150;29;20461;-88
2021/11/26 09:03:05;;;;;;;11.02;3.53;;;4.10;82.80;;;;;;4935659;29;20401;-88
2021/11/26 09:05:34;;;;;;;11.15;3.75;;;4.10;82.90;;;;;;4936147;29;20059;-88
2021/11/26 09:08:04;;;;;;;16.70;4.10;;;4.10;82.90;;;;;;4934573;29;20051;-87
2021/11/26 09:10:35;;;;;;;11.60;4.05;;;4.10;82.90;;;;;;4935123;29;20094;-88
2021/11/26 09:13:05;;;;;;;12.60;3.97;;;4.10;82.80;;;;;;4918784;29;20052;-88
2021/11/26 09:15:32;;;;;;;15.52;4.30;;;4.20;82.90;;;;;;4935312;29;20052;-89
2021/11/26 09:18:03;;;;;;;15.27;4.38;;;4.20;82.80;;;;;;4933463;29;20469;-88
2021/11/26 09:20:32;;;;;;;12.77;4.25;;;4.20;82.80;;;;;;4934858;29;20110;-88
2021/11/26 09:22:58;;;;;;;17.08;4.22;;;4.20;82.90;;;;;;4933754;29;20054;-88
2021/11/26 09:25:25;;;;;;;14.48;4.20;;;4.20;82.90;;;;;;4934793;29;20067;-87
2021/11/26 09:27:53;;;;;;;12.85;4.05;;;4.20;82.90;;;;;;4936589;29;20052;-87
2021/11/26 09:30:21;;;;;;;10.13;3.70;;;4.20;82.90;;;;;;4934320;29;20055;-87
2021/11/26 09:32:48;;;;;;;14.73;4.25;;;4.30;82.90;;;;;;4934525;29;20059;-87
2021/11/26 09:35:16;;;;;;;11.05;3.60;;;4.30;82.90;;;;;;4934282;29;20051;-86
2021/11/26 09:37:42;;;;;;;9.70;3.33;;;4.30;82.90;;;;;;4934533;29;20056;-87
2021/11/26 09:40:12;;;;;;;17.75;3.90;;;4.30;82.90;;;;;;4935732;29;20058;-88
2021/11/26 09:42:43;;;;;;;15.48;3.60;;;4.30;82.90;;;;;;4935443;29;20052;-86
2021/11/26 09:45:15;;;;;;;11.38;3.83;;;4.40;83.00;;;;;;4933801;29;20055;-86
2021/11/26 09:47:43;;;;;;;10.98;3.75;;;4.40;83.00;;;;;;4932792;29;20047;-86
2021/11/26 09:50:10;;;;;;;11.25;3.60;;;4.40;83.00;;;;;;4934376;29;20501;-86
2021/11/26 09:52:43;;;;;;;21.30;3.85;;;4.40;83.00;;;;;;4934282;29;20044;-86
2021/11/26 09:55:12;;;;;;;13.32;3.90;;;4.40;83.00;;;;;;4935452;29;20089;-86
2021/11/26 09:57:40;;;;;;;8.98;3.65;;;4.50;83.00;;;;;;4934720;29;20094;-87
2021/11/26 10:00:10;;;;;;;19.35;4.25;;;4.50;83.00;;;;;;4933030;29;20055;-87
2021/11/26 10:02:38;;;;;;;11.25;3.50;;;4.50;83.00;;;;;;4934220;29;20039;-88
2021/11/26 10:05:09;;;;;;;10.70;3.10;;;4.50;83.00;;;;;;4934214;29;20055;-87
2021/11/26 10:07:46;;;;;;;17.23;4.40;;;4.50;83.00;;;;;;4919246;29;20095;-87
2021/11/26 10:10:19;;;;;;;12.63;3.63;;;4.50;83.00;;;;;;4916158;29;20056;-88
2021/11/26 10:12:57;;;;;;;15.43;3.80;;;4.60;83.00;;;;;;4933854;29;20054;-86
2021/11/26 10:15:29;;;;;;;10.30;4.07;;;4.60;83.00;;;;;;4933983;29;20055;-87
2021/11/26 10:18:09;;;;;;;13.05;4.55;;;4.60;83.10;;;;;;4933801;29;20051;-88
2021/11/26 10:20:38;;;;;;;17.05;5.00;;;4.70;83.10;;;;;;4932711;29;20055;-87
2021/11/26 10:23:18;;;;;;;16.73;4.13;;;4.70;83.10;;;;;;4932642;29;20505;-88
2021/11/26 10:25:45;;;;;;;12.00;3.90;;;4.70;83.10;;;;;;4920619;29;20059;-89
2021/11/26 10:28:12;;;;;;;10.35;4.03;;;4.70;83.10;;;;;;4935152;29;20114;-88
2021/11/26 10:30:45;;;;;;;9.68;3.85;;;4.70;83.10;;;;;;4934846;29;20114;-88
2021/11/26 10:33:24;;;;;;;18.30;4.63;;;4.70;83.10;;;;;;4931468;29;20054;-87
2021/11/26 10:35:54;;;;;;;13.82;4.75;;;4.70;83.10;;;;;;4933906;29;20052;-86
2021/11/26 10:38:41;;;;;;;8.60;3.38;;;4.80;83.10;;;;;;4933256;29;20048;-87
2021/11/26 10:41:13;;;;;;;10.98;4.43;;;4.80;83.20;;;;;;4934085;29;20055;-87
2021/11/26 11:00:18;;;;;;;16.23;4.15;;;4.90;83.30;;;;;;4933783;29;20054;-87
2021/11/26 11:02:51;;;;;;;12.43;4.60;;;4.90;83.40;;;;;;4933840;29;20516;-87
2021/11/26 11:05:32;;;;;;;11.50;4.72;;;4.90;83.40;;;;;;4933751;29;20512;-88
2021/11/26 11:08:02;;;;;;;14.85;4.65;;;4.90;83.40;;;;;;4934361;29;20048;-88
2021/11/26 11:10:33;;;;;;;12.27;4.13;;;4.90;83.40;;;;;;4932778;29;20052;-86
2021/11/26 11:13:16;;;;;;;14.85;4.30;;;4.90;83.50;;;;;;4935198;29;20052;-89
2021/11/26 11:15:45;;;;;;;13.82;4.30;;;5.00;83.60;;;;;;4935534;29;20059;-89
2021/11/26 11:18:12;;;;;;;11.02;3.97;;;5.00;83.60;;;;;;4934000;29;20056;-87
2021/11/26 11:20:40;;;;;;;12.48;4.50;;;5.00;83.60;;;;;;4932030;29;20048;-87
2021/11/26 11:23:08;;;;;;;11.48;3.95;;;5.00;83.60;;;;;;4933649;29;20054;-87
2021/11/26 11:25:36;;;;;;;9.88;4.03;;;5.10;83.70;;;;;;4918487;29;20077;-88
2021/11/26 11:28:06;;;;;;;16.80;4.10;;;5.10;83.70;;;;;;4931407;29;20051;-88
2021/11/26 11:30:33;;;;;;;11.32;4.35;;;5.10;83.70;;;;;;4934155;29;20477;-88
2021/11/26 11:33:00;;;;;;;11.60;3.75;;;5.10;83.80;;;;;;4932464;29;20429;-88
2021/11/26 11:35:30;;;;;;;12.02;3.80;;;5.20;83.80;;;;;;4933070;29;20060;-87
2021/11/26 11:37:59;;;;;;;12.15;3.90;;;5.20;83.90;;;;;;4931707;29;20047;-88
2021/11/26 11:40:31;;;;;;;12.43;3.47;;;5.20;83.90;;;;;;4933638;29;20055;-89
2021/11/26 11:43:19;;;;;;;11.57;3.55;;;5.20;83.90;;;;;;4934841;29;20052;-88
2021/11/26 11:46:05;;;;;;;8.80;3.65;;;5.30;84.00;;;;;;4933348;29;20066;-89
2021/11/26 11:48:36;;;;;;;14.65;3.65;;;5.30;84.10;;;;;;4932275;29;20052;-86
2021/11/26 11:51:05;;;;;;;10.68;3.60;;;5.30;84.10;;;;;;4931476;29;20078;-86
2021/11/26 11:53:36;;;;;;;18.35;4.15;;;5.30;84.10;;;;;;4930834;29;20046;-86
2021/11/26 11:56:12;;;;;;;10.85;3.08;;;5.40;84.10;;;;;;4934297;29;20417;-91
2021/11/26 11:58:51;;;;;;;15.18;3.72;;;5.40;84.10;;;;;;4934035;29;20048;-87
2021/11/26 12:01:24;;;;;;;11.02;3.40;;;5.40;84.10;;;;;;4934208;29;20051;-88
2021/11/26 12:03:53;;;;;;;10.63;2.80;;;5.40;84.10;;;;;;4933768;29;20099;-88
2021/11/26 12:06:21;;;;;;;15.45;3.72;;;5.40;84.00;;;;;;4933372;29;20059;-88
2021/11/26 12:08:56;;;;;;;12.65;3.17;;;5.40;84.00;;;;;;4930794;29;20067;-90
2021/11/26 12:11:31;;;;;;;11.13;3.10;;;5.50;84.00;;;;;;4931930;29;20044;-90
2021/11/26 12:14:10;;;;;;;13.95;3.65;;;5.50;84.00;;;;;;4932274;29;20051;-91
2021/11/26 12:19:40;;;;;;;9.43;3.20;;;5.40;83.90;;;;;;4918247;29;20052;-89
2021/11/26 12:22:15;;;;;;;11.60;3.30;;;5.40;83.90;;;;;;4933272;29;20052;-87
2021/11/26 12:24:46;;;;;;;7.50;2.70;;;5.50;84.00;;;;;;4935607;29;20568;-90
2021/11/26 12:27:21;;;;;;;11.38;3.78;;;5.40;84.00;;;;;;4935680;29;20180;-88
2021/11/26 12:29:50;;;;;;;11.55;3.13;;;5.40;84.00;;;;;;4935193;29;20461;-87
2021/11/26 12:32:23;;;;;;;12.38;3.22;;;5.40;84.10;;;;;;4935456;29;20091;-89
2021/11/26 12:34:52;;;;;;;8.80;3.03;;;5.40;84.10;;;;;;4936369;29;20048;-88
2021/11/26 12:37:26;;;;;;;8.98;2.88;;;5.40;84.10;;;;;;4937626;29;20051;-86
2021/11/26 12:39:56;;;;;;;12.82;3.13;;;5.40;84.10;;;;;;4937508;29;20740;-89
2021/11/26 12:42:24;;;;;;;10.80;2.85;;;5.40;84.20;;;;;;4936449;29;20078;-90
2021/11/26 12:45:04;;;;;;;10.52;3.25;;;5.50;84.20;;;;;;4936384;29;20055;-89
2021/11/26 12:47:59;;;;;;;10.63;3.13;;;5.40;84.20;;;;;;4936375;29;20044;-90
2021/11/26 12:53:21;;;;;;;16.10;3.20;;;5.40;84.30;;;;;;4938776;29;20052;-91
2021/11/26 12:55:57;;;;;;;14.38;3.00;;;5.50;84.40;;;;;;4937735;29;20123;-90
2021/11/26 12:58:27;;;;;;;13.48;3.33;;;5.40;84.50;;;;;;4935941;29;20124;-89
2021/11/26 13:01:04;;;;;;;8.70;3.08;;;5.40;84.50;;;;;;4933458;29;20055;-89
2021/11/26 13:03:46;;;;;;;17.65;3.10;;;5.40;84.60;;;;;;4937438;29;20053;-88
2021/11/26 13:06:19;;;;;;;9.32;2.78;;;5.40;84.60;;;;;;4923663;29;20052;-89
2021/11/26 13:08:55;;;;;;;16.08;3.05;;;5.50;84.70;;;;;;4930945;29;20048;-89
2021/11/26 13:11:46;;;;;;;10.15;2.85;;;5.50;84.70;;;;;;4933565;29;20107;-90
2021/11/26 13:15:07;;;;;;;10.57;2.83;;;5.50;84.70;;;;;;4935758;29;20103;-90
2021/11/26 13:17:38;;;;;;;11.35;2.85;;;5.50;84.80;;;;;;4897467;29;20052;-90
2021/11/26 13:20:14;;;;;;;10.25;2.53;;;5.50;84.80;;;;;;4896262;29;20108;-90
2021/11/26 13:22:47;;;;;;;8.77;2.67;;;5.50;84.80;;;;;;4895575;29;20049;-90